Time;durP1;ratioP1;P1;durP2;ratioP2;P2;SDS_P1;SDS_P2;PMS_P1;PMS_P2;Temp;Humidity;BMP_temperature;BMP_pressure;BME280_temperature;BME280_humidity;BME280_pressure;Samples;Min_cycle;Max_cycle;Signal;HPM_P1;HPM_P2
2023/06/22 00:02:15;;;;;;;15.32;9.48;;;;;;;15.09;53.10;102003.00;4955348;28;20065;-70
2023/06/22 00:04:40;;;;;;;15.02;11.15;;;;;;;14.90;53.51;102002.88;4954089;28;20037;-68
2023/06/22 00:07:06;;;;;;;16.55;11.60;;;;;;;14.99;53.55;102002.50;4956610;28;20182;-67
2023/06/22 00:09:32;;;;;;;15.80;11.30;;;;;;;15.02;53.43;101996.28;4955654;28;20062;-68
2023/06/22 00:11:57;;;;;;;14.52;10.90;;;;;;;15.08;53.33;101996.91;4956839;28;20038;-68
2023/06/22 00:14:23;;;;;;;13.88;10.57;;;;;;;15.04;53.17;101997.94;4959186;28;20797;-68
2023/06/22 00:16:49;;;;;;;15.52;10.38;;;;;;;15.04;53.01;101995.31;4954956;28;20364;-70
2023/06/22 00:19:19;;;;;;;12.52;9.38;;;;;;;15.00;53.21;102004.25;4958563;28;20545;-70
2023/06/22 00:21:46;;;;;;;15.68;11.13;;;;;;;14.98;53.30;101991.13;4958988;28;20286;-69
2023/06/22 00:24:12;;;;;;;9.95;7.63;;;;;;;14.96;53.27;101998.22;4961643;28;20046;-68
2023/06/22 00:26:38;;;;;;;10.40;7.65;;;;;;;14.93;53.03;101997.53;4956472;28;20042;-68
2023/06/22 00:29:05;;;;;;;15.55;9.30;;;;;;;14.87;53.03;102000.38;4961253;28;20085;-68
2023/06/22 00:31:30;;;;;;;15.05;10.38;;;;;;;14.72;53.58;102004.47;4957475;28;20117;-68
2023/06/22 00:33:56;;;;;;;14.88;11.35;;;;;;;14.53;54.01;102009.63;4971732;28;20074;-68
2023/06/22 00:36:21;;;;;;;14.73;10.77;;;;;;;14.54;54.47;102008.69;4966378;28;20065;-68
2023/06/22 00:38:47;;;;;;;12.00;8.80;;;;;;;14.56;54.38;102012.97;4957221;28;20158;-68
2023/06/22 00:41:13;;;;;;;16.92;11.80;;;;;;;14.56;54.49;102010.34;4959487;28;20042;-69
2023/06/22 00:43:38;;;;;;;18.75;11.98;;;;;;;14.65;54.04;102018.81;4954032;28;20050;-68
2023/06/22 00:46:04;;;;;;;15.90;10.57;;;;;;;14.67;53.84;102016.97;4959003;28;20124;-68
2023/06/22 00:48:29;;;;;;;14.90;11.15;;;;;;;14.56;53.95;102014.75;4957365;28;20125;-69
2023/06/22 00:50:55;;;;;;;18.40;10.48;;;;;;;14.52;53.97;102013.16;4965918;28;20843;-69
2023/06/22 00:53:22;;;;;;;18.00;12.00;;;;;;;14.40;54.11;102010.97;4957525;28;20031;-69
2023/06/22 00:55:51;;;;;;;18.10;10.38;;;;;;;14.31;54.36;102015.66;4957585;28;20030;-69
2023/06/22 00:58:21;;;;;;;17.63;11.10;;;;;;;14.26;54.17;102006.25;4956292;28;20046;-69
2023/06/22 01:00:48;;;;;;;14.95;11.18;;;;;;;14.10;54.44;102009.44;4957274;28;20034;-69
2023/06/22 01:03:14;;;;;;;15.40;10.82;;;;;;;13.97;54.80;102009.97;4958952;28;20050;-69
2023/06/22 01:05:40;;;;;;;16.23;9.95;;;;;;;14.00;54.88;102009.84;4959000;28;20340;-69
2023/06/22 01:08:21;;;;;;;17.48;12.85;;;;;;;13.91;54.99;102009.25;4965450;28;20057;-68
2023/06/22 01:10:54;;;;;;;17.63;12.20;;;;;;;13.87;54.85;102018.16;4963984;28;20034;-69
2023/06/22 01:13:32;;;;;;;14.02;11.25;;;;;;;13.88;54.92;102014.63;4971889;28;20463;-69
2023/06/22 01:16:26;;;;;;;13.77;9.77;;;;;;;13.89;54.91;102018.94;4958947;28;20471;-69
2023/06/22 01:18:54;;;;;;;17.13;11.65;;;;;;;13.84;55.00;102009.53;4938726;28;20081;-69
2023/06/22 01:21:22;;;;;;;19.02;12.40;;;;;;;13.77;55.00;102003.63;4963653;28;20034;-69
2023/06/22 01:24:11;;;;;;;19.30;12.23;;;;;;;13.65;55.49;101998.81;4959442;28;20131;-69
2023/06/22 01:26:48;;;;;;;17.10;11.90;;;;;;;13.60;55.61;102012.09;4948536;28;20815;-69
2023/06/22 01:29:15;;;;;;;22.25;12.80;;;;;;;13.72;55.25;102010.84;4957329;28;20302;-69
2023/06/22 01:31:44;;;;;;;20.10;13.32;;;;;;;13.65;55.29;102004.06;4953609;28;20030;-68
2023/06/22 01:34:12;;;;;;;15.50;9.52;;;;;;;13.67;55.30;102007.50;4961381;28;20031;-69
2023/06/22 01:36:39;;;;;;;17.30;11.20;;;;;;;13.80;54.89;102000.88;4971953;28;20027;-69
2023/06/22 01:39:05;;;;;;;14.52;10.00;;;;;;;13.81;54.59;102002.63;4956931;28;20046;-69
2023/06/22 01:41:38;;;;;;;14.77;10.75;;;;;;;13.82;54.35;102006.94;4964804;28;20034;-69
2023/06/22 01:44:08;;;;;;;14.23;9.88;;;;;;;13.86;54.09;101992.78;4954168;28;20082;-69
2023/06/22 01:46:35;;;;;;;15.32;11.05;;;;;;;13.87;54.20;102004.16;4958694;28;20062;-68
2023/06/22 01:49:05;;;;;;;19.42;12.82;;;;;;;13.88;53.87;102006.75;4962353;28;20487;-68
2023/06/22 01:51:31;;;;;;;24.10;14.32;;;;;;;13.72;54.52;102005.59;4973300;28;20039;-68
2023/06/22 01:53:59;;;;;;;17.98;13.23;;;;;;;13.74;54.88;102008.97;4970895;28;20026;-68
2023/06/22 01:56:26;;;;;;;17.73;12.65;;;;;;;13.68;54.68;102009.22;4958670;28;20970;-66
2023/06/22 01:59:07;;;;;;;18.85;12.60;;;;;;;13.75;54.76;102013.34;4954548;28;20323;-69
2023/06/22 02:01:39;;;;;;;17.45;12.07;;;;;;;13.72;54.85;102010.84;4959940;28;20119;-69
2023/06/22 02:04:27;;;;;;;16.65;12.18;;;;;;;13.73;54.92;102015.16;4954830;28;20034;-69
2023/06/22 02:06:58;;;;;;;25.42;15.18;;;;;;;13.68;54.85;102015.31;4969620;28;20200;-69
2023/06/22 02:09:28;;;;;;;16.63;11.57;;;;;;;13.68;54.92;102024.97;4955938;28;20113;-69
2023/06/22 02:11:56;;;;;;;20.38;13.77;;;;;;;13.59;55.12;102014.81;4952024;28;20518;-70
2023/06/22 02:14:23;;;;;;;20.85;14.40;;;;;;;13.59;55.18;102005.16;4959339;28;20477;-70
2023/06/22 02:16:50;;;;;;;19.42;12.52;;;;;;;13.66;55.19;102006.63;4959886;28;20069;-70
2023/06/22 02:19:15;;;;;;;20.38;13.07;;;;;;;13.66;55.07;102004.00;4962959;28;20030;-67
2023/06/22 02:21:41;;;;;;;19.00;12.40;;;;;;;13.71;54.86;101998.59;4957799;28;20066;-70
2023/06/22 02:24:07;;;;;;;19.52;14.45;;;;;;;13.65;54.56;101998.81;4955883;28;21709;-69
2023/06/22 02:26:36;;;;;;;18.05;12.43;;;;;;;13.63;54.75;101998.00;4971781;28;20267;-71
2023/06/22 02:29:01;;;;;;;21.02;14.30;;;;;;;13.64;54.89;101997.09;4957046;28;20041;-72
2023/06/22 02:31:30;;;;;;;21.48;15.15;;;;;;;13.62;54.95;101996.28;4961589;28;20034;-72
2023/06/22 02:33:58;;;;;;;23.77;15.63;;;;;;;13.65;55.00;101989.19;4960822;28;20035;-70
2023/06/22 02:36:26;;;;;;;19.10;13.75;;;;;;;13.66;55.04;101993.50;4954402;28;20043;-68
2023/06/22 02:38:52;;;;;;;21.75;15.75;;;;;;;13.64;54.71;101986.59;4963507;28;20065;-74
2023/06/22 02:41:18;;;;;;;21.80;15.27;;;;;;;13.67;54.36;101986.47;4964300;28;20034;-69
2023/06/22 02:43:47;;;;;;;22.83;15.98;;;;;;;13.68;54.27;101994.31;4959142;28;20039;-71
2023/06/22 02:46:13;;;;;;;25.00;16.85;;;;;;;13.66;54.41;101995.28;4942147;28;20070;-72
2023/06/22 02:48:40;;;;;;;21.67;15.68;;;;;;;13.66;54.29;101990.03;4956213;28;20570;-71
2023/06/22 02:51:07;;;;;;;24.73;18.15;;;;;;;13.61;54.38;101991.97;4971911;28;20070;-72
2023/06/22 02:53:34;;;;;;;23.90;16.35;;;;;;;13.60;54.54;101987.59;4952937;28;21523;-71
2023/06/22 02:56:03;;;;;;;30.45;18.85;;;;;;;13.47;54.78;101988.03;4957736;28;20045;-74
2023/06/22 02:58:30;;;;;;;25.92;16.60;;;;;;;13.40;55.00;101989.13;4974043;28;20050;-75
2023/06/22 03:00:55;;;;;;;20.20;14.80;;;;;;;13.48;55.03;102004.63;4972630;28;20037;-71
2023/06/22 03:03:21;;;;;;;24.23;16.42;;;;;;;13.53;54.76;102003.53;4954986;28;20053;-72
2023/06/22 03:05:46;;;;;;;26.80;17.27;;;;;;;13.61;54.67;102010.34;4970205;28;20042;-71
2023/06/22 03:08:12;;;;;;;28.55;19.05;;;;;;;13.71;54.55;102009.94;4957234;28;20632;-71
2023/06/22 03:10:38;;;;;;;21.75;16.02;;;;;;;13.72;54.24;102005.59;4955571;28;20043;-68
2023/06/22 03:13:04;;;;;;;24.90;16.98;;;;;;;13.69;54.26;102000.41;4969947;28;20039;-73
2023/06/22 03:15:31;;;;;;;27.98;17.73;;;;;;;13.65;54.20;101999.69;4971912;28;20158;-71
2023/06/22 03:17:57;;;;;;;20.45;14.45;;;;;;;13.67;54.38;101996.97;4953628;28;20047;-71
2023/06/22 03:20:23;;;;;;;22.83;17.17;;;;;;;13.68;54.37;101996.09;4954174;28;20030;-70
2023/06/22 03:22:48;;;;;;;25.52;16.98;;;;;;;13.72;54.23;102000.31;4955841;28;20093;-70
2023/06/22 03:25:14;;;;;;;32.55;19.98;;;;;;;13.70;54.26;102002.16;4957296;28;20613;-71
2023/06/22 03:27:43;;;;;;;25.05;18.38;;;;;;;13.74;54.18;102001.09;4969919;28;20039;-70
2023/06/22 03:30:11;;;;;;;29.15;19.50;;;;;;;13.80;54.22;102003.50;4965625;28;20697;-71
2023/06/22 03:32:36;;;;;;;31.60;20.02;;;;;;;13.75;54.14;102010.72;4953289;28;20062;-70
2023/06/22 03:35:03;;;;;;;25.65;16.98;;;;;;;13.81;54.17;102005.25;4953955;28;20046;-70
2023/06/22 03:37:29;;;;;;;30.30;19.90;;;;;;;13.87;54.05;102002.38;4958142;28;20038;-70
2023/06/22 03:39:55;;;;;;;26.73;18.98;;;;;;;13.98;53.86;102006.41;4967528;28;20519;-70
2023/06/22 03:42:21;;;;;;;20.92;14.68;;;;;;;13.97;54.00;102002.91;4953784;28;20043;-69
2023/06/22 03:44:47;;;;;;;26.73;18.20;;;;;;;13.99;53.80;102008.97;4959261;28;20031;-68
2023/06/22 03:47:12;;;;;;;24.77;18.60;;;;;;;14.07;53.81;102011.31;4961933;28;20507;-74
2023/06/22 03:49:38;;;;;;;30.92;19.00;;;;;;;14.21;53.35;102006.41;4961573;28;20030;-71
2023/06/22 03:52:04;;;;;;;25.58;18.13;;;;;;;14.28;53.36;102007.91;4955913;28;20121;-72
2023/06/22 03:54:30;;;;;;;28.23;17.08;;;;;;;14.34;53.32;102010.31;4960768;28;20540;-70
2023/06/22 03:56:58;;;;;;;31.27;18.35;;;;;;;14.36;53.07;102003.19;4959789;28;20034;-72
2023/06/22 03:59:24;;;;;;;25.88;17.45;;;;;;;14.50;52.87;102010.59;4978159;28;20045;-73
2023/06/22 04:01:50;;;;;;;27.88;17.75;;;;;;;14.50;53.17;102014.97;4961618;28;20030;-70
2023/06/22 04:04:17;;;;;;;24.67;16.10;;;;;;;14.57;52.73;102011.22;4963827;28;20043;-69
2023/06/22 04:06:43;;;;;;;29.25;20.60;;;;;;;14.62;53.03;102014.53;4960190;28;20035;-71
2023/06/22 04:09:08;;;;;;;27.17;18.25;;;;;;;14.73;52.87;102007.06;4959460;28;20596;-73
2023/06/22 04:11:34;;;;;;;27.30;17.05;;;;;;;14.80;52.81;102012.94;4965352;28;20042;-71
2023/06/22 04:14:00;;;;;;;23.13;16.10;;;;;;;14.85;52.85;102010.13;4957806;28;20034;-71
2023/06/22 04:16:25;;;;;;;28.67;18.80;;;;;;;14.90;53.00;102010.78;4961660;28;20031;-76
2023/06/22 04:18:51;;;;;;;35.17;22.25;;;;;;;14.89;52.38;102011.72;4962579;28;20276;-73
2023/06/22 04:21:16;;;;;;;29.52;17.95;;;;;;;14.95;52.77;102011.47;4967175;28;21518;-69
2023/06/22 04:23:42;;;;;;;37.60;22.95;;;;;;;15.12;52.51;102008.13;4958815;28;20151;-69
2023/06/22 04:26:08;;;;;;;29.67;20.05;;;;;;;15.15;52.92;102008.88;4974692;28;20617;-68
2023/06/22 04:28:35;;;;;;;27.42;17.40;;;;;;;15.31;53.08;102008.28;4963490;28;21678;-69
2023/06/22 04:31:04;;;;;;;31.42;20.20;;;;;;;15.43;52.64;102002.47;4959500;28;20033;-71
2023/06/22 04:33:30;;;;;;;32.55;22.27;;;;;;;15.50;52.73;101997.78;4971601;28;20970;-73
2023/06/22 04:36:00;;;;;;;35.88;23.25;;;;;;;15.65;53.00;102001.56;4960551;28;20141;-71
2023/06/22 04:38:26;;;;;;;35.13;23.95;;;;;;;15.73;52.59;102000.31;4954201;28;20044;-72
2023/06/22 04:40:53;;;;;;;34.28;20.42;;;;;;;15.87;52.59;102006.75;4967488;28;20557;-71
2023/06/22 04:43:19;;;;;;;26.77;19.48;;;;;;;16.08;52.44;102005.78;4959932;28;20034;-71
2023/06/22 04:45:44;;;;;;;40.17;22.80;;;;;;;16.17;51.51;102007.16;4965764;28;20112;-69
2023/06/22 04:48:12;;;;;;;37.30;24.13;;;;;;;16.30;51.68;102010.09;4957874;28;20050;-74
2023/06/22 04:50:41;;;;;;;36.60;23.67;;;;;;;16.40;51.54;102012.22;4966157;28;20101;-76
2023/06/22 04:53:07;;;;;;;32.67;22.13;;;;;;;16.54;51.98;102002.81;4964682;28;20041;-75
2023/06/22 04:55:33;;;;;;;36.63;22.02;;;;;;;16.74;51.32;102000.06;4966872;28;20141;-76
2023/06/22 04:58:04;;;;;;;28.25;19.27;;;;;;;16.97;50.67;102003.41;4952417;28;20038;-76
2023/06/22 05:00:31;;;;;;;31.52;21.77;;;;;;;17.11;50.59;102010.63;4977840;28;20035;-76
2023/06/22 05:02:57;;;;;;;32.30;22.30;;;;;;;17.14;50.17;102013.97;4958138;28;20042;-74
2023/06/22 05:05:24;;;;;;;31.55;21.25;;;;;;;17.26;49.96;102011.66;4959989;28;20679;-76
2023/06/22 05:07:52;;;;;;;30.52;20.90;;;;;;;17.85;49.19;102005.09;4972292;28;20073;-75
2023/06/22 05:10:19;;;;;;;34.33;23.52;;;;;;;18.51;47.50;102008.63;4974479;28;20046;-75
2023/06/22 05:12:46;;;;;;;30.02;21.50;;;;;;;19.20;45.75;102002.88;4974800;28;20158;-75
2023/06/22 05:15:15;;;;;;;28.55;20.20;;;;;;;19.00;45.67;101995.25;4953798;28;20051;-75
2023/06/22 05:17:42;;;;;;;31.23;19.95;;;;;;;18.96;45.63;101999.03;4955073;28;20043;-76
2023/06/22 05:20:10;;;;;;;37.97;25.15;;;;;;;18.72;45.58;101996.81;4975247;28;20090;-75
2023/06/22 05:22:36;;;;;;;31.65;20.90;;;;;;;19.13;45.10;101996.25;4971841;28;20661;-75
2023/06/22 05:25:01;;;;;;;29.77;20.80;;;;;;;20.33;43.24;101988.97;4962716;28;20175;-75
2023/06/22 05:27:27;;;;;;;32.45;20.73;;;;;;;21.91;40.77;101986.34;4975717;28;20049;-74
2023/06/22 05:29:52;;;;;;;34.55;22.30;;;;;;;23.12;37.31;101987.25;4967930;28;20117;-75
2023/06/22 05:32:18;;;;;;;17.80;12.30;;;;;;;23.87;35.43;101979.75;4958429;28;20043;-74
2023/06/22 05:34:44;;;;;;;24.40;16.67;;;;;;;23.74;36.36;101990.50;4962163;28;20143;-75
2023/06/22 05:37:09;;;;;;;25.00;16.27;;;;;;;24.17;35.56;101987.97;4960543;28;20618;-75
2023/06/22 05:39:37;;;;;;;26.27;16.98;;;;;;;25.19;33.38;101991.13;4973302;28;20070;-74
2023/06/22 05:42:07;;;;;;;24.88;16.65;;;;;;;26.65;29.73;101989.03;4959366;28;20353;-75
2023/06/22 05:44:33;;;;;;;24.48;16.55;;;;;;;27.13;29.83;101994.53;4956878;28;20042;-75
2023/06/22 05:46:59;;;;;;;18.08;13.85;;;;;;;27.69;27.72;101991.00;4964019;28;20030;-75
2023/06/22 05:49:29;;;;;;;22.75;17.25;;;;;;;26.37;30.94;102003.22;4955152;28;20883;-75
2023/06/22 05:51:56;;;;;;;21.50;17.52;;;;;;;25.50;32.61;102006.41;4960050;28;20045;-74
2023/06/22 05:54:21;;;;;;;18.95;14.20;;;;;;;26.52;29.87;101996.47;4954544;28;20127;-80
2023/06/22 05:56:47;;;;;;;20.90;15.77;;;;;;;27.14;29.17;101996.22;4973497;28;20471;-75
2023/06/22 05:59:12;;;;;;;19.17;15.85;;;;;;;27.41;29.18;101996.31;4966028;28;20666;-75
2023/06/22 06:01:39;;;;;;;21.65;16.17;;;;;;;27.69;28.63;102001.72;4955898;28;20337;-75
2023/06/22 06:04:09;;;;;;;16.17;12.52;;;;;;;27.50;29.42;102005.31;4959677;28;20042;-76
2023/06/22 06:06:36;;;;;;;16.50;13.18;;;;;;;27.49;29.24;102006.28;4972834;28;20129;-76
2023/06/22 06:09:07;;;;;;;13.95;12.43;;;;;;;27.67;28.84;102014.47;4959138;28;20066;-75
2023/06/22 06:11:33;;;;;;;14.73;12.60;;;;;;;26.88;29.86;102008.34;4958638;28;20039;-76
2023/06/22 06:13:58;;;;;;;14.73;12.15;;;;;;;26.30;29.89;102002.94;4958821;28;20061;-75
2023/06/22 06:16:24;;;;;;;12.15;9.50;;;;;;;27.40;28.00;102005.31;4973188;28;20033;-76
2023/06/22 06:18:50;;;;;;;19.20;12.57;;;;;;;27.47;28.32;101995.72;4962313;28;20385;-75
2023/06/22 06:21:16;;;;;;;14.93;12.27;;;;;;;26.73;28.47;101995.53;4944643;28;20550;-76
2023/06/22 06:23:42;;;;;;;18.35;12.77;;;;;;;25.45;30.78;102001.44;4973546;28;20034;-75
2023/06/22 06:26:07;;;;;;;18.10;11.63;;;;;;;25.78;30.59;101996.84;4964595;28;20038;-76
2023/06/22 06:28:33;;;;;;;15.15;11.30;;;;;;;25.82;30.18;101993.75;4969423;28;20133;-76
2023/06/22 06:30:59;;;;;;;13.20;10.98;;;;;;;25.61;29.86;101996.47;4961602;28;20034;-75
2023/06/22 06:33:25;;;;;;;13.93;8.77;;;;;;;26.15;29.44;102001.63;4955795;28;20039;-75
2023/06/22 06:35:50;;;;;;;12.15;7.47;;;;;;;26.61;28.00;101998.34;4958059;28;20030;-76
2023/06/22 06:38:16;;;;;;;8.40;7.18;;;;;;;26.83;28.26;101997.22;4955844;28;20615;-75
2023/06/22 06:40:41;;;;;;;10.82;7.90;;;;;;;28.19;25.31;101993.31;4972553;28;20615;-75
2023/06/22 06:43:07;;;;;;;11.85;8.43;;;;;;;28.11;25.41;101999.38;4960930;28;20085;-76
2023/06/22 06:45:34;;;;;;;7.97;6.90;;;;;;;28.38;25.07;101996.84;4956756;28;20079;-75
2023/06/22 06:48:00;;;;;;;13.30;7.40;;;;;;;28.92;24.24;102005.75;4961782;28;20046;-76
2023/06/22 06:50:25;;;;;;;10.15;7.85;;;;;;;28.52;24.98;102002.56;4970454;28;20042;-80
2023/06/22 06:52:51;;;;;;;14.55;8.65;;;;;;;28.67;24.78;101997.50;4956350;28;20039;-75
2023/06/22 06:55:20;;;;;;;8.02;6.95;;;;;;;29.10;24.96;101994.97;4959239;28;20551;-75
2023/06/22 06:57:49;;;;;;;9.70;6.28;;;;;;;29.95;23.03;101993.28;4965540;28;20137;-76
2023/06/22 07:00:36;;;;;;;7.50;5.90;;;;;;;30.28;22.34;101993.38;4966143;28;20038;-76
2023/06/22 07:03:02;;;;;;;10.50;7.88;;;;;;;29.23;22.90;102003.50;4957527;28;20592;-76
2023/06/22 07:05:27;;;;;;;10.48;8.35;;;;;;;28.82;24.36;102005.03;4955536;28;20077;-76
2023/06/22 07:07:53;;;;;;;6.50;5.53;;;;;;;29.77;23.48;101996.09;4958588;28;20731;-75
2023/06/22 07:10:19;;;;;;;12.07;9.02;;;;;;;29.66;23.06;102001.75;4954790;28;20878;-77
2023/06/22 07:12:44;;;;;;;14.00;10.38;;;;;;;28.05;24.94;102004.53;4954847;28;20041;-75
2023/06/22 07:15:12;;;;;;;13.82;10.65;;;;;;;27.26;26.85;102005.81;4959695;28;20092;-75
2023/06/22 07:17:40;;;;;;;14.48;10.57;;;;;;;26.97;27.76;102006.66;4952567;28;20392;-75
2023/06/22 07:20:12;;;;;;;14.23;9.90;;;;;;;27.44;27.30;102004.03;4950570;28;20067;-74
2023/06/22 07:22:39;;;;;;;10.48;9.38;;;;;;;28.11;26.55;102006.63;4951368;28;20054;-75
2023/06/22 07:25:09;;;;;;;12.18;8.77;;;;;;;28.74;25.30;101995.03;4963171;28;20583;-75
2023/06/22 07:27:57;;;;;;;11.82;8.88;;;;;;;29.25;24.14;102008.72;4953396;28;21166;-75
2023/06/22 07:30:23;;;;;;;11.20;7.90;;;;;;;29.90;23.02;101992.91;4956469;28;20426;-75
2023/06/22 07:32:48;;;;;;;12.70;9.43;;;;;;;29.06;24.19;101994.44;4956284;28;20041;-75
2023/06/22 07:35:16;;;;;;;16.92;9.98;;;;;;;29.78;23.64;101994.22;4964686;28;20128;-76
2023/06/22 07:37:41;;;;;;;13.88;10.02;;;;;;;30.13;22.65;101995.03;4971350;28;20034;-79
2023/06/22 07:40:08;;;;;;;13.93;10.13;;;;;;;29.60;24.39;102001.56;4959755;28;20037;-75
2023/06/22 07:42:34;;;;;;;10.45;9.43;;;;;;;29.94;24.22;101996.97;4954881;28;20535;-76
2023/06/22 07:44:59;;;;;;;9.85;8.15;;;;;;;30.41;22.66;102002.84;4969971;28;20054;-75
2023/06/22 07:47:27;;;;;;;14.65;9.90;;;;;;;30.74;23.20;102004.59;4954667;28;20062;-75
2023/06/22 07:49:54;;;;;;;12.77;9.55;;;;;;;30.24;23.05;102008.19;4963673;28;20628;-76
2023/06/22 07:52:22;;;;;;;12.52;7.82;;;;;;;30.17;23.83;101999.91;4962462;28;20871;-75
2023/06/22 07:54:48;;;;;;;14.65;7.15;;;;;;;30.75;22.24;102000.03;4957916;28;20135;-75
2023/06/22 07:57:13;;;;;;;6.93;6.15;;;;;;;30.82;22.68;101989.41;4960165;28;20709;-75
2023/06/22 07:59:39;;;;;;;6.38;5.72;;;;;;;30.57;22.86;101990.25;4969242;28;20034;-75
2023/06/22 08:02:08;;;;;;;9.50;6.68;;;;;;;32.01;21.61;101988.63;4938034;28;20047;-75
2023/06/22 08:04:34;;;;;;;7.70;5.30;;;;;;;32.42;20.62;101989.19;4959004;28;20049;-76
2023/06/22 08:07:00;;;;;;;8.02;5.93;;;;;;;32.13;20.79;101980.94;4956701;28;20529;-76
2023/06/22 08:09:30;;;;;;;6.60;4.75;;;;;;;32.15;20.36;101978.91;4955441;28;20054;-76
2023/06/22 08:11:56;;;;;;;3.38;3.08;;;;;;;31.99;19.97;101974.44;4951441;28;20030;-77
2023/06/22 08:14:28;;;;;;;7.13;5.18;;;;;;;31.58;20.77;101975.47;4963627;28;20442;-76
2023/06/22 08:16:56;;;;;;;9.35;5.38;;;;;;;30.92;21.62;101973.88;4956431;28;20531;-76
2023/06/22 08:19:21;;;;;;;10.38;4.43;;;;;;;31.55;21.79;101969.56;4956032;28;20089;-75
2023/06/22 08:21:49;;;;;;;7.03;2.72;;;;;;;32.20;19.79;101971.09;4949884;28;20034;-76
2023/06/22 08:24:14;;;;;;;7.85;4.15;;;;;;;30.93;21.30;101956.66;4972956;28;20039;-76
2023/06/22 08:26:40;;;;;;;10.40;5.97;;;;;;;31.38;20.91;101964.19;4957514;28;20511;-76
2023/06/22 08:29:06;;;;;;;8.85;5.28;;;;;;;31.48;20.99;101964.00;4960724;28;20034;-76
2023/06/22 08:31:34;;;;;;;9.77;5.38;;;;;;;31.13;21.33;101960.69;4969710;28;20057;-75
2023/06/22 08:33:59;;;;;;;6.28;4.32;;;;;;;31.81;20.71;101963.88;4955567;28;20450;-76
2023/06/22 08:36:25;;;;;;;6.53;5.05;;;;;;;31.91;20.98;101959.06;4954548;28;20026;-75
2023/06/22 08:38:52;;;;;;;5.63;5.03;;;;;;;31.56;21.14;101958.59;4962610;28;20543;-76
2023/06/22 08:41:17;;;;;;;6.78;5.43;;;;;;;31.18;21.70;101952.94;4960118;28;20034;-76
2023/06/22 08:43:45;;;;;;;8.55;5.35;;;;;;;31.08;21.76;101952.28;4956107;28;20512;-76
2023/06/22 08:46:11;;;;;;;8.63;6.10;;;;;;;30.44;22.74;101952.09;4962432;28;20050;-76
2023/06/22 08:48:36;;;;;;;8.23;6.88;;;;;;;30.64;22.63;101958.03;4954891;28;20138;-76
2023/06/22 08:51:03;;;;;;;7.45;5.35;;;;;;;31.14;22.24;101950.75;4976670;28;20066;-76
2023/06/22 08:53:28;;;;;;;6.20;5.07;;;;;;;30.74;23.00;101945.22;4947940;28;20389;-77
2023/06/22 08:55:56;;;;;;;6.63;5.57;;;;;;;31.57;21.86;101944.03;4960974;28;20034;-75
2023/06/22 08:58:24;;;;;;;5.93;5.13;;;;;;;31.71;22.28;101947.00;4959330;28;20067;-76
2023/06/22 09:00:51;;;;;;;6.15;4.82;;;;;;;31.33;21.59;101946.81;4956627;28;20053;-76
2023/06/22 09:03:20;;;;;;;7.65;4.45;;;;;;;30.90;22.77;101940.81;4957400;28;20506;-75
2023/06/22 09:05:46;;;;;;;5.93;4.18;;;;;;;30.93;21.80;101937.75;4953722;28;20442;-75
2023/06/22 09:08:11;;;;;;;4.53;3.67;;;;;;;31.18;22.55;101935.88;4959233;28;20145;-76
2023/06/22 09:10:37;;;;;;;5.55;3.60;;;;;;;31.00;22.81;101936.06;4954988;28;20444;-75
2023/06/22 09:13:02;;;;;;;6.72;4.10;;;;;;;31.12;22.03;101937.44;4955411;28;20605;-77
2023/06/22 09:15:28;;;;;;;3.75;3.10;;;;;;;31.37;20.81;101942.75;4970056;28;20040;-75
2023/06/22 09:17:54;;;;;;;4.53;2.83;;;;;;;31.27;21.59;101950.19;4958446;28;20419;-75
2023/06/22 09:20:22;;;;;;;5.82;2.88;;;;;;;31.09;22.19;101950.41;4957693;28;20034;-74
2023/06/22 09:22:49;;;;;;;3.25;2.25;;;;;;;30.96;21.20;101940.97;4952797;28;20517;-75
2023/06/22 09:25:17;;;;;;;2.75;1.77;;;;;;;30.92;21.02;101936.09;4958159;28;20042;-75
2023/06/22 09:27:43;;;;;;;7.28;2.30;;;;;;;30.63;21.47;101948.28;4956476;28;20539;-75
2023/06/22 09:30:10;;;;;;;5.57;2.25;;;;;;;31.05;21.71;101939.13;4958928;28;20430;-74
2023/06/22 09:32:38;;;;;;;3.35;2.10;;;;;;;30.42;22.59;101934.41;4943582;28;20096;-75
2023/06/22 09:35:07;;;;;;;4.35;2.47;;;;;;;28.91;23.28;101934.97;4960305;28;20097;-75
2023/06/22 09:37:35;;;;;;;3.90;2.28;;;;;;;29.08;23.68;101935.94;4953845;28;20092;-76
2023/06/22 09:40:01;;;;;;;2.45;1.23;;;;;;;29.50;22.62;101932.44;4958993;28;20026;-75
2023/06/22 09:42:26;;;;;;;3.70;2.58;;;;;;;29.28;23.81;101938.41;4955931;28;20113;-76
2023/06/22 09:44:52;;;;;;;4.38;2.92;;;;;;;29.70;23.13;101929.53;4957142;28;20050;-76
2023/06/22 09:47:17;;;;;;;4.80;3.40;;;;;;;28.86;23.80;101931.91;4955522;28;20538;-75
2023/06/22 09:49:45;;;;;;;3.35;2.03;;;;;;;28.50;25.14;101925.69;4953934;28;23402;-75
2023/06/22 09:52:11;;;;;;;3.05;1.77;;;;;;;28.29;24.16;101929.56;4957374;28;20042;-74
2023/06/22 09:54:38;;;;;;;3.80;3.30;;;;;;;27.99;24.88;101935.25;4967203;28;20137;-75
2023/06/22 09:57:04;;;;;;;6.05;3.28;;;;;;;27.85;25.10;101937.50;4960585;28;20061;-75
2023/06/22 09:59:30;;;;;;;5.15;2.78;;;;;;;27.13;25.85;101935.50;4958382;28;20085;-75
2023/06/22 10:01:55;;;;;;;4.50;2.60;;;;;;;27.38;26.63;101928.63;4955952;28;20093;-75
2023/06/22 10:04:21;;;;;;;5.68;3.67;;;;;;;27.16;26.93;101929.81;4967553;28;20038;-75
2023/06/22 10:06:47;;;;;;;5.75;3.45;;;;;;;27.05;26.12;101918.25;4953467;28;20404;-75
2023/06/22 10:09:12;;;;;;;6.07;3.92;;;;;;;27.21;26.74;101916.84;4958044;28;20194;-74
2023/06/22 10:11:40;;;;;;;4.47;3.40;;;;;;;27.22;26.05;101924.72;4952746;28;20047;-77
2023/06/22 10:14:06;;;;;;;5.10;3.00;;;;;;;27.51;26.47;101918.41;4954560;28;20049;-75
2023/06/22 10:16:36;;;;;;;4.05;3.22;;;;;;;27.46;25.39;101913.47;4955438;28;20031;-76
2023/06/22 10:19:01;;;;;;;5.93;3.08;;;;;;;27.89;25.41;101916.53;4957272;28;20493;-75
2023/06/22 10:21:28;;;;;;;3.70;2.42;;;;;;;27.66;25.89;101911.56;4963319;28;20035;-75
2023/06/22 10:23:54;;;;;;;4.07;3.35;;;;;;;28.27;25.92;101904.66;4947737;28;20054;-75
2023/06/22 10:26:19;;;;;;;7.53;3.85;;;;;;;28.24;25.48;101918.44;4971273;28;20038;-75
2023/06/22 10:28:52;;;;;;;6.65;4.18;;;;;;;27.80;26.28;101912.91;4961396;28;20282;-75
2023/06/22 10:31:20;;;;;;;5.38;3.67;;;;;;;28.08;26.83;101913.72;4964716;28;20027;-74
2023/06/22 10:33:49;;;;;;;8.70;3.88;;;;;;;27.83;26.07;101904.56;4956382;28;20697;-75
2023/06/22 10:36:15;;;;;;;9.82;4.60;;;;;;;27.80;26.28;101907.53;4972194;28;20052;-75
2023/06/22 10:38:40;;;;;;;3.90;3.10;;;;;;;27.82;24.59;101905.53;4952054;28;20105;-75
2023/06/22 10:41:05;;;;;;;4.20;2.92;;;;;;;28.39;24.27;101891.00;4962173;28;20607;-75
2023/06/22 10:43:31;;;;;;;8.25;5.00;;;;;;;27.87;26.13;101892.47;4970042;28;20475;-75
2023/06/22 10:45:56;;;;;;;9.70;5.00;;;;;;;27.93;26.25;101891.88;4969566;28;20034;-75
2023/06/22 10:48:22;;;;;;;6.47;5.72;;;;;;;27.73;26.81;101895.69;4955708;28;20570;-75
2023/06/22 10:50:47;;;;;;;9.50;6.00;;;;;;;27.39;27.08;101888.22;4960902;28;20522;-74
2023/06/22 10:53:13;;;;;;;10.10;6.00;;;;;;;27.12;27.21;101881.00;4954603;28;20132;-74
2023/06/22 10:55:38;;;;;;;8.63;6.60;;;;;;;26.95;27.43;101884.41;4952832;28;20086;-74
2023/06/22 10:58:04;;;;;;;6.93;5.22;;;;;;;26.40;28.63;101880.53;4957476;28;20061;-75
2023/06/22 11:00:29;;;;;;;6.45;4.63;;;;;;;26.77;27.28;101878.94;4956745;28;20041;-76
2023/06/22 11:02:54;;;;;;;7.93;4.35;;;;;;;27.14;27.35;101878.16;4955322;28;20417;-75
2023/06/22 11:05:20;;;;;;;6.60;5.13;;;;;;;26.87;26.81;101877.94;4955443;28;20038;-76
2023/06/22 11:07:46;;;;;;;8.13;3.90;;;;;;;26.61;27.44;101872.34;4953304;28;20053;-76
2023/06/22 11:10:12;;;;;;;9.45;5.45;;;;;;;26.43;27.32;101874.88;4958782;28;20075;-75
2023/06/22 11:12:37;;;;;;;7.07;3.80;;;;;;;26.38;27.57;101871.78;4950844;28;20161;-74
2023/06/22 11:15:03;;;;;;;8.80;4.93;;;;;;;26.66;28.37;101872.75;4955548;28;20853;-74